createdAt,value
2023-05-24T00:01:04.790Z,2.67
2023-05-24T00:03:35.064Z,2.60
2023-05-24T00:06:02.232Z,2.70
2023-05-24T00:08:29.449Z,2.78
2023-05-24T00:10:56.489Z,2.75
2023-05-24T00:13:23.991Z,2.47
2023-05-24T00:15:51.096Z,2.67
2023-05-24T00:18:18.959Z,2.47
2023-05-24T00:20:46.417Z,3.10
2023-05-24T00:23:13.839Z,2.88
2023-05-24T00:25:40.847Z,2.50
2023-05-24T00:28:08.023Z,2.15
2023-05-24T00:30:35.055Z,2.88
2023-05-24T00:33:02.693Z,2.50
2023-05-24T00:35:30.672Z,2.40
2023-05-24T00:37:58.186Z,2.55
2023-05-24T00:40:25.139Z,2.33
2023-05-24T00:42:52.821Z,2.70
2023-05-24T00:45:19.995Z,2.63
2023-05-24T00:47:47.837Z,2.83
2023-05-24T00:50:17.195Z,1.90
2023-05-24T00:52:44.820Z,2.85
2023-05-24T00:55:12.499Z,2.20
2023-05-24T00:57:39.891Z,2.47
2023-05-24T01:00:08.148Z,2.83
2023-05-24T01:02:35.581Z,2.60
2023-05-24T01:05:02.948Z,2.63
2023-05-24T01:07:37.987Z,2.38
2023-05-24T01:10:30.616Z,2.22
2023-05-24T01:13:27.088Z,2.45
2023-05-24T01:16:22.373Z,2.63
2023-05-24T01:18:57.945Z,2.55
2023-05-24T01:21:38.961Z,2.42
2023-05-24T01:24:26.204Z,2.90
2023-05-24T01:27:06.967Z,3.08
2023-05-24T01:29:36.101Z,3.10
2023-05-24T01:32:03.622Z,2.80
2023-05-24T01:34:31.032Z,2.60
2023-05-24T01:36:57.924Z,3.00
2023-05-24T01:39:28.053Z,3.00
2023-05-24T01:42:16.457Z,2.90
2023-05-24T01:45:09.246Z,3.05
2023-05-24T01:48:19.379Z,2.88
2023-05-24T01:50:50.154Z,3.00
2023-05-24T01:53:20.023Z,2.78
2023-05-24T01:55:50.970Z,3.35
2023-05-24T01:58:19.935Z,2.85
2023-05-24T02:00:47.633Z,2.67
2023-05-24T02:03:15.856Z,2.72
2023-05-24T02:05:44.461Z,2.80
2023-05-24T02:08:12.974Z,2.90
2023-05-24T02:10:41.223Z,2.92
2023-05-24T02:13:08.844Z,3.00
2023-05-24T02:15:36.264Z,2.78
2023-05-24T02:18:04.286Z,3.00
2023-05-24T02:20:31.902Z,2.55
2023-05-24T02:23:00.168Z,2.78
2023-05-24T02:25:27.922Z,2.55
2023-05-24T02:27:54.948Z,2.53
2023-05-24T02:30:22.165Z,2.55
2023-05-24T02:32:49.074Z,2.92
2023-05-24T02:35:16.494Z,2.97
2023-05-24T02:37:43.783Z,2.83
2023-05-24T02:40:11.696Z,2.83
2023-05-24T02:42:38.972Z,2.47
2023-05-24T02:45:07.350Z,2.67
2023-05-24T02:47:34.497Z,2.83
2023-05-24T02:50:02.089Z,2.83
2023-05-24T02:52:29.208Z,2.70
2023-05-24T02:54:56.482Z,2.63
2023-05-24T02:57:23.488Z,3.25
2023-05-24T02:59:51.304Z,2.67
2023-05-24T03:02:19.601Z,2.97
2023-05-24T03:04:46.867Z,2.80
2023-05-24T03:07:14.275Z,2.75
2023-05-24T03:09:42.995Z,2.90
2023-05-24T03:12:09.970Z,2.90
2023-05-24T03:14:38.504Z,2.72
2023-05-24T03:17:06.139Z,2.92
2023-05-24T03:19:35.258Z,3.15
2023-05-24T03:22:02.171Z,2.75
2023-05-24T03:24:29.806Z,2.83
2023-05-24T03:26:57.491Z,2.50
2023-05-24T03:29:24.742Z,2.80
2023-05-24T03:31:53.473Z,2.70
2023-05-24T03:34:20.824Z,2.65
2023-05-24T03:36:47.849Z,2.63
2023-05-24T03:39:15.543Z,2.45
2023-05-24T03:41:59.720Z,2.78
2023-05-24T03:44:27.373Z,2.45
2023-05-24T03:46:54.517Z,2.70
2023-05-24T03:49:21.928Z,2.90
2023-05-24T03:51:49.538Z,2.80
2023-05-24T03:54:18.747Z,2.70
2023-05-24T03:56:46.711Z,2.67
2023-05-24T03:59:14.315Z,2.67
2023-05-24T04:01:41.218Z,2.55
2023-05-24T04:04:08.991Z,2.42
2023-05-24T04:06:36.933Z,2.50
2023-05-24T04:09:07.337Z,3.10
2023-05-24T04:11:34.551Z,2.70
2023-05-24T04:14:02.092Z,2.30
2023-05-24T04:16:34.099Z,2.80
2023-05-24T04:19:04.732Z,2.78
2023-05-24T04:21:33.306Z,2.60
2023-05-24T04:24:01.757Z,2.50
2023-05-24T04:26:29.920Z,2.40
2023-05-24T04:28:57.974Z,2.50
2023-05-24T04:31:26.330Z,2.53
2023-05-24T04:33:53.879Z,2.63
2023-05-24T04:36:23.046Z,2.40
2023-05-24T04:38:50.442Z,2.22
2023-05-24T04:41:17.428Z,2.38
2023-05-24T04:43:44.991Z,3.20
2023-05-24T04:46:12.924Z,2.45
2023-05-24T04:48:40.765Z,2.17
2023-05-24T04:51:07.684Z,2.50
2023-05-24T04:53:34.882Z,2.25
2023-05-24T04:56:01.857Z,2.33
2023-05-24T04:58:29.177Z,1.98
2023-05-24T05:00:56.154Z,2.72
2023-05-24T05:03:23.595Z,2.17
2023-05-24T05:05:50.702Z,2.35
2023-05-24T05:08:18.138Z,2.47
2023-05-24T05:10:45.122Z,2.28
2023-05-24T05:13:12.617Z,2.65
2023-05-24T05:15:40.964Z,2.42
2023-05-24T05:18:10.478Z,2.30
2023-05-24T05:20:37.615Z,2.40
2023-05-24T05:23:04.880Z,2.20
2023-05-24T05:25:32.027Z,2.20
2023-05-24T05:27:59.221Z,2.25
2023-05-24T05:30:26.189Z,2.05
2023-05-24T05:32:53.550Z,2.05
2023-05-24T05:35:20.715Z,2.20
2023-05-24T05:37:48.041Z,2.20
2023-05-24T05:40:15.165Z,2.20
2023-05-24T05:42:42.607Z,2.17
2023-05-24T05:45:09.899Z,1.98
2023-05-24T05:47:37.260Z,1.75
2023-05-24T05:50:04.429Z,1.92
2023-05-24T05:52:31.610Z,2.08
2023-05-24T05:55:00.234Z,2.33
2023-05-24T05:57:27.450Z,1.90
2023-05-24T05:59:54.417Z,2.20
2023-05-24T06:02:24.713Z,2.13
2023-05-24T06:04:52.091Z,2.03
2023-05-24T06:07:20.162Z,1.95
2023-05-24T06:09:47.241Z,1.85
2023-05-24T06:12:14.527Z,1.60
2023-05-24T06:14:41.425Z,1.70
2023-05-24T06:17:09.539Z,1.83
2023-05-24T06:19:36.643Z,1.70
2023-05-24T06:22:04.391Z,1.48
2023-05-24T06:24:34.609Z,1.70
2023-05-24T06:27:05.165Z,1.90
2023-05-24T06:29:32.536Z,1.90
2023-05-24T06:32:00.248Z,1.75
2023-05-24T06:34:27.522Z,1.52
2023-05-24T06:36:54.796Z,1.60
2023-05-24T06:39:21.851Z,1.80
2023-05-24T06:41:51.446Z,1.65
2023-05-24T06:44:30.950Z,1.40
2023-05-24T06:46:58.369Z,1.88
2023-05-24T06:49:25.468Z,1.45
2023-05-24T06:51:53.018Z,1.50
2023-05-24T06:54:20.212Z,1.67
2023-05-24T06:56:47.740Z,1.35
2023-05-24T06:59:14.649Z,1.90
2023-05-24T07:01:43.169Z,1.73
2023-05-24T07:04:10.497Z,1.50
2023-05-24T07:06:37.822Z,2.08
2023-05-24T07:09:05.446Z,1.60
2023-05-24T07:11:32.716Z,1.80
2023-05-24T07:13:59.821Z,1.60
2023-05-24T07:16:27.214Z,1.65
2023-05-24T07:18:55.423Z,1.58
2023-05-24T07:21:22.714Z,1.48
2023-05-24T07:23:51.239Z,1.80
2023-05-24T07:26:18.482Z,1.50
2023-05-24T07:28:46.002Z,1.48
2023-05-24T07:31:13.393Z,1.80
2023-05-24T07:33:40.747Z,1.52
2023-05-24T07:36:08.945Z,1.40
2023-05-24T07:38:36.295Z,1.73
2023-05-24T07:41:04.815Z,1.40
2023-05-24T07:43:32.179Z,1.38
2023-05-24T07:45:59.371Z,1.30
2023-05-24T07:48:26.828Z,1.63
2023-05-24T07:50:55.042Z,1.50
2023-05-24T07:53:23.061Z,1.08
2023-05-24T07:55:50.901Z,1.55
2023-05-24T07:58:17.884Z,1.40
2023-05-24T08:00:45.797Z,1.45
2023-05-24T08:03:14.801Z,1.52
2023-05-24T08:05:42.446Z,1.73
2023-05-24T08:08:10.129Z,1.60
2023-05-24T08:10:37.760Z,1.30
2023-05-24T08:13:05.768Z,1.67
2023-05-24T08:15:33.080Z,1.55
2023-05-24T08:18:00.199Z,8.38
2023-05-24T08:20:27.904Z,6.40
2023-05-24T08:22:55.052Z,1.65
2023-05-24T08:25:22.470Z,1.65
2023-05-24T08:27:49.440Z,1.90
2023-05-24T08:30:17.630Z,1.30
2023-05-24T08:32:44.647Z,3.10
2023-05-24T08:37:45.756Z,2.65
2023-05-24T08:40:13.114Z,1.50
2023-05-24T08:42:41.664Z,4.80
2023-05-24T08:45:11.655Z,2.40
2023-05-24T08:47:39.314Z,4.10
2023-05-24T08:50:07.362Z,2.80
2023-05-24T08:52:34.424Z,1.75
2023-05-24T08:55:04.950Z,3.10
2023-05-24T08:57:34.669Z,3.75
2023-05-24T09:00:02.217Z,1.40
2023-05-24T09:02:30.341Z,2.10
2023-05-24T09:04:58.758Z,2.20
2023-05-24T09:07:26.274Z,2.53
2023-05-24T09:10:06.968Z,3.95
2023-05-24T09:12:38.751Z,2.13
2023-05-24T09:15:08.514Z,2.60
2023-05-24T09:17:37.229Z,4.05
2023-05-24T09:20:10.271Z,12.48
2023-05-24T09:22:41.051Z,4.72
2023-05-24T09:25:11.030Z,9.52
2023-05-24T09:27:38.948Z,9.93
2023-05-24T09:30:11.046Z,6.25
2023-05-24T09:32:38.799Z,2.90
2023-05-24T09:35:09.460Z,2.85
2023-05-24T09:37:38.950Z,1.65
2023-05-24T09:40:08.988Z,1.80
2023-05-24T09:42:36.064Z,2.03
2023-05-24T09:45:07.757Z,2.25
2023-05-24T09:47:36.276Z,1.65
2023-05-24T09:50:05.316Z,1.88
2023-05-24T09:52:33.945Z,1.30
2023-05-24T09:55:15.323Z,2.55
2023-05-24T09:57:51.356Z,6.18
2023-05-24T10:00:23.369Z,3.13
2023-05-24T10:03:04.463Z,8.50
2023-05-24T10:05:32.196Z,8.30
2023-05-24T10:07:59.607Z,22.15
2023-05-24T10:10:31.398Z,44.75
2023-05-24T10:12:59.779Z,13.02
2023-05-24T10:15:27.654Z,4.38
2023-05-24T10:17:56.180Z,5.70
2023-05-24T10:20:24.560Z,3.25
2023-05-24T10:23:04.042Z,4.60
2023-05-24T10:25:33.657Z,2.72
2023-05-24T10:28:09.306Z,1.90
2023-05-24T10:30:41.094Z,4.10
2023-05-24T10:33:09.507Z,4.38
2023-05-24T10:35:38.363Z,2.72
2023-05-24T10:38:08.703Z,2.40
2023-05-24T10:40:41.723Z,2.00
2023-05-24T10:43:09.070Z,1.50
2023-05-24T10:45:40.852Z,6.70
2023-05-24T10:48:14.024Z,7.10
2023-05-24T10:50:42.670Z,16.23
2023-05-24T10:53:14.270Z,10.55
2023-05-24T10:56:04.083Z,27.38
2023-05-24T10:58:34.137Z,12.20
2023-05-24T11:01:01.834Z,7.43
2023-05-24T11:03:35.518Z,3.47
2023-05-24T11:06:03.256Z,4.75
2023-05-24T11:08:38.058Z,1.55
2023-05-24T11:13:41.491Z,3.47
2023-05-24T11:16:09.325Z,4.75
2023-05-24T11:18:40.187Z,2.13
2023-05-24T11:21:08.039Z,1.52
2023-05-24T11:23:38.129Z,2.03
2023-05-24T11:26:07.319Z,3.13
2023-05-24T11:28:37.737Z,5.60
2023-05-24T11:31:08.994Z,2.03
2023-05-24T11:33:41.509Z,2.00
2023-05-24T11:36:09.739Z,3.63
2023-05-24T11:38:37.586Z,1.70
2023-05-24T11:41:05.310Z,1.60
2023-05-24T11:43:32.263Z,1.70
2023-05-24T11:45:59.558Z,11.88
2023-05-24T11:48:27.762Z,2.78
2023-05-24T11:50:55.428Z,1.83
2023-05-24T11:53:22.681Z,5.97
2023-05-24T11:55:50.977Z,1.83
2023-05-24T11:58:26.294Z,2.28
2023-05-24T12:00:53.578Z,1.30
2023-05-24T12:03:21.877Z,1.63
2023-05-24T12:05:49.492Z,3.17
2023-05-24T12:08:16.614Z,6.13
2023-05-24T12:10:44.628Z,3.45
2023-05-24T12:13:26.914Z,2.22
2023-05-24T12:15:56.546Z,1.80
2023-05-24T12:18:26.159Z,1.60
2023-05-24T12:20:53.909Z,1.50
2023-05-24T12:23:29.534Z,3.47
2023-05-24T12:26:00.589Z,2.72
2023-05-24T12:28:28.671Z,4.60
2023-05-24T12:30:56.244Z,1.67
2023-05-24T12:33:23.687Z,3.45
2023-05-24T12:35:51.397Z,2.90
2023-05-24T12:38:25.438Z,1.88
2023-05-24T12:41:08.175Z,2.30
2023-05-24T12:43:40.708Z,1.48
2023-05-24T12:46:07.981Z,1.30
2023-05-24T12:48:35.346Z,1.40
2023-05-24T12:51:03.116Z,1.30
2023-05-24T12:53:30.162Z,1.40
2023-05-24T12:55:57.553Z,1.50
2023-05-24T12:58:25.167Z,2.97
2023-05-24T13:00:52.559Z,1.77
2023-05-24T13:03:19.549Z,3.42
2023-05-24T13:05:47.467Z,1.55
2023-05-24T13:08:14.704Z,1.40
2023-05-24T13:10:42.266Z,1.40
2023-05-24T13:13:09.437Z,1.60
2023-05-24T13:15:38.093Z,1.80
2023-05-24T13:18:05.462Z,1.63
2023-05-24T13:20:33.406Z,1.70
2023-05-24T13:23:00.794Z,1.70
2023-05-24T13:25:28.140Z,2.20
2023-05-24T13:27:55.158Z,2.17
2023-05-24T13:30:27.752Z,2.40
2023-05-24T13:32:56.055Z,1.50
2023-05-24T13:35:23.484Z,1.40
2023-05-24T13:37:51.227Z,1.50
2023-05-24T13:40:18.600Z,1.48
2023-05-24T13:42:45.761Z,2.67
2023-05-24T13:45:12.966Z,1.50
2023-05-24T13:47:41.477Z,1.40
2023-05-24T13:50:09.399Z,2.17
2023-05-24T13:52:37.083Z,5.68
2023-05-24T13:55:04.977Z,5.45
2023-05-24T13:57:49.639Z,6.38
2023-05-24T14:00:18.955Z,1.90
2023-05-24T14:02:46.098Z,1.40
2023-05-24T14:05:26.980Z,1.70
2023-05-24T14:08:00.528Z,1.60
2023-05-24T14:10:28.124Z,1.40
2023-05-24T14:13:13.551Z,1.48
2023-05-24T14:15:42.500Z,1.40
2023-05-24T14:18:09.630Z,1.50
2023-05-24T14:20:38.127Z,1.30
2023-05-24T14:23:07.235Z,2.53
2023-05-24T14:25:35.087Z,2.30
2023-05-24T14:28:03.663Z,1.58
2023-05-24T14:30:32.072Z,1.30
2023-05-24T14:33:00.800Z,1.33
2023-05-24T14:35:27.994Z,1.55
2023-05-24T14:37:55.389Z,1.58
2023-05-24T14:40:22.562Z,1.77
2023-05-24T14:42:50.047Z,1.77
2023-05-24T14:45:17.164Z,1.25
2023-05-24T14:47:44.457Z,1.35
2023-05-24T14:50:11.696Z,1.40
2023-05-24T14:52:39.187Z,1.50
2023-05-24T14:55:07.307Z,1.35
2023-05-24T14:57:35.940Z,1.50
2023-05-24T15:00:03.859Z,1.30
2023-05-24T15:02:31.359Z,1.65
2023-05-24T15:04:58.882Z,1.40
2023-05-24T15:07:26.436Z,1.45
2023-05-24T15:09:53.447Z,1.40
2023-05-24T15:12:20.834Z,1.63
2023-05-24T15:14:47.788Z,1.30
2023-05-24T15:17:15.201Z,1.65
2023-05-24T15:19:42.389Z,1.55
2023-05-24T15:22:09.746Z,1.40
2023-05-24T15:24:37.995Z,1.48
2023-05-24T15:27:05.462Z,1.42
2023-05-24T15:29:32.414Z,1.58
2023-05-24T15:32:01.550Z,1.50
2023-05-24T15:34:28.580Z,1.88
2023-05-24T15:36:56.086Z,1.55
2023-05-24T15:39:23.066Z,1.48
2023-05-24T15:41:50.424Z,1.48
2023-05-24T15:44:17.392Z,1.67
2023-05-24T15:46:44.650Z,1.30
2023-05-24T15:49:11.681Z,1.42
2023-05-24T15:54:09.185Z,1.85
2023-05-24T15:56:36.582Z,1.73
2023-05-24T15:59:03.728Z,1.90
2023-05-24T16:01:31.068Z,1.60
2023-05-24T16:03:58.143Z,1.50
2023-05-24T16:06:25.583Z,1.40
2023-05-24T16:08:52.553Z,1.67
2023-05-24T16:11:21.596Z,1.45
2023-05-24T16:13:50.368Z,2.03
2023-05-24T16:16:17.676Z,1.85
2023-05-24T16:18:44.668Z,1.52
2023-05-24T16:21:12.611Z,1.67
2023-05-24T16:23:39.654Z,1.70
2023-05-24T16:26:06.945Z,1.50
2023-05-24T16:28:33.854Z,1.40
2023-05-24T16:31:03.203Z,1.48
2023-05-24T16:33:30.158Z,1.40
2023-05-24T16:35:58.597Z,1.65
2023-05-24T16:38:26.464Z,1.70
2023-05-24T16:40:54.218Z,2.00
2023-05-24T16:43:21.773Z,1.40
2023-05-24T16:45:49.306Z,1.90
2023-05-24T16:48:16.564Z,1.55
2023-05-24T16:50:44.194Z,1.52
2023-05-24T16:53:11.342Z,1.63
2023-05-24T16:55:38.892Z,1.67
2023-05-24T16:58:05.858Z,1.80
2023-05-24T17:00:34.611Z,1.80
2023-05-24T17:03:01.719Z,2.00
2023-05-24T17:05:29.109Z,1.77
2023-05-24T17:07:56.262Z,1.83
2023-05-24T17:10:23.552Z,1.80
2023-05-24T17:12:50.642Z,1.85
2023-05-24T17:15:17.948Z,1.40
2023-05-24T17:17:44.949Z,1.75
2023-05-24T17:20:13.638Z,1.75
2023-05-24T17:22:41.076Z,1.83
2023-05-24T17:25:08.667Z,1.83
2023-05-24T17:27:36.437Z,1.70
2023-05-24T17:30:03.897Z,1.98
2023-05-24T17:32:31.277Z,1.77
2023-05-24T17:34:58.608Z,1.92
2023-05-24T17:37:25.864Z,2.05
2023-05-24T17:39:53.139Z,1.90
2023-05-24T17:42:20.287Z,2.10
2023-05-24T17:44:47.889Z,1.58
2023-05-24T17:47:14.844Z,1.60
2023-05-24T17:49:42.239Z,1.88
2023-05-24T17:52:09.288Z,2.05
2023-05-24T17:54:36.834Z,2.10
2023-05-24T17:57:04.390Z,1.90
2023-05-24T17:59:33.730Z,2.20
2023-05-24T18:02:00.777Z,2.08
2023-05-24T18:04:28.772Z,2.10
2023-05-24T18:06:56.638Z,1.88
2023-05-24T18:09:23.890Z,1.85
2023-05-24T18:11:51.666Z,2.35
2023-05-24T18:14:19.086Z,1.95
2023-05-24T18:16:46.237Z,1.98
2023-05-24T18:19:13.918Z,1.88
2023-05-24T18:21:41.138Z,2.33
2023-05-24T18:24:08.561Z,2.22
2023-05-24T18:26:35.925Z,1.88
2023-05-24T18:29:03.198Z,2.05
2023-05-24T18:31:30.440Z,2.10
2023-05-24T18:33:58.930Z,1.95
2023-05-24T18:36:27.951Z,2.20
2023-05-24T18:38:55.266Z,1.95
2023-05-24T18:41:22.204Z,1.90
2023-05-24T18:43:49.507Z,1.98
2023-05-24T18:46:16.683Z,2.28
2023-05-24T18:48:44.196Z,2.60
2023-05-24T18:51:11.196Z,2.38
2023-05-24T18:53:38.538Z,2.50
2023-05-24T18:56:06.037Z,2.17
2023-05-24T18:58:33.340Z,1.90
2023-05-24T19:01:01.181Z,1.95
2023-05-24T19:03:28.788Z,2.30
2023-05-24T19:05:56.079Z,2.38
2023-05-24T19:08:23.392Z,2.15
2023-05-24T19:10:50.335Z,2.40
2023-05-24T19:13:17.624Z,1.83
2023-05-24T19:15:44.786Z,2.50
2023-05-24T19:18:12.217Z,2.55
2023-05-24T19:20:39.251Z,2.55
2023-05-24T19:23:07.543Z,2.17
2023-05-24T19:25:41.700Z,1.90
2023-05-24T19:28:11.004Z,2.47
2023-05-24T19:30:37.974Z,2.42
2023-05-24T19:33:06.716Z,2.30
2023-05-24T19:35:34.473Z,2.40
2023-05-24T19:38:01.748Z,2.17
2023-05-24T19:40:29.068Z,1.80
2023-05-24T19:42:56.445Z,2.28
2023-05-24T19:45:23.537Z,2.38
2023-05-24T19:47:51.807Z,2.20
2023-05-24T19:50:19.204Z,2.42
2023-05-24T19:52:46.590Z,2.10
2023-05-24T19:55:13.569Z,2.58
2023-05-24T19:57:40.876Z,2.20
2023-05-24T20:00:08.337Z,2.33
2023-05-24T20:02:41.562Z,1.98
2023-05-24T20:05:09.091Z,2.45
2023-05-24T20:07:36.407Z,2.42
2023-05-24T20:10:05.612Z,2.40
2023-05-24T20:12:34.693Z,2.50
2023-05-24T20:15:01.868Z,2.38
2023-05-24T20:17:29.292Z,1.98
2023-05-24T20:19:56.434Z,2.15
2023-05-24T20:22:23.736Z,2.78
2023-05-24T20:24:51.308Z,2.40
2023-05-24T20:27:18.696Z,2.80
2023-05-24T20:29:45.936Z,2.13
2023-05-24T20:32:14.292Z,2.53
2023-05-24T20:34:41.338Z,2.50
2023-05-24T20:37:08.671Z,2.10
2023-05-24T20:39:35.614Z,2.20
2023-05-24T20:42:03.181Z,2.33
2023-05-24T20:44:30.349Z,2.15
2023-05-24T20:46:57.641Z,2.72
2023-05-24T20:49:24.665Z,2.42
2023-05-24T20:51:51.980Z,2.33
2023-05-24T20:54:18.918Z,2.42
2023-05-24T20:56:46.348Z,2.42
2023-05-24T20:59:13.359Z,2.78
2023-05-24T21:01:40.715Z,2.50
2023-05-24T21:04:07.689Z,2.58
2023-05-24T21:06:34.984Z,2.35
2023-05-24T21:09:02.230Z,2.67
2023-05-24T21:11:29.833Z,2.08
2023-05-24T21:13:58.178Z,3.08
2023-05-24T21:16:25.772Z,2.40
2023-05-24T21:18:52.787Z,3.60
2023-05-24T21:21:20.091Z,3.60
2023-05-24T21:23:47.380Z,3.75
2023-05-24T21:26:14.632Z,3.72
2023-05-24T21:28:41.668Z,4.30
2023-05-24T21:31:08.947Z,4.65
2023-05-24T21:33:37.489Z,4.07
2023-05-24T21:36:04.795Z,3.92
2023-05-24T21:38:31.781Z,4.03
2023-05-24T21:40:59.013Z,4.50
2023-05-24T21:43:25.934Z,4.00
2023-05-24T21:45:53.194Z,4.13
2023-05-24T21:48:21.326Z,3.55
2023-05-24T21:50:48.737Z,3.80
2023-05-24T21:53:15.685Z,3.63
2023-05-24T21:55:43.304Z,3.78
2023-05-24T21:58:10.428Z,4.20
2023-05-24T22:00:38.559Z,3.83
2023-05-24T22:05:32.852Z,4.28
2023-05-24T22:07:59.871Z,3.80
2023-05-24T22:10:27.104Z,4.22
2023-05-24T22:12:54.151Z,3.47
2023-05-24T22:15:21.834Z,4.38
2023-05-24T22:17:49.129Z,3.80
2023-05-24T22:20:17.061Z,3.97
2023-05-24T22:22:53.483Z,3.70
2023-05-24T22:25:21.043Z,4.47
2023-05-24T22:27:51.512Z,4.18
2023-05-24T22:30:19.567Z,4.38
2023-05-24T22:32:46.588Z,3.78
2023-05-24T22:35:13.942Z,3.83
2023-05-24T22:37:41.313Z,3.70
2023-05-24T22:40:08.989Z,3.88
2023-05-24T22:42:35.976Z,4.10
2023-05-24T22:45:03.457Z,3.90
2023-05-24T22:47:33.554Z,3.42
2023-05-24T22:50:02.216Z,3.38
2023-05-24T22:52:30.399Z,3.85
2023-05-24T22:54:57.727Z,4.43
2023-05-24T22:57:24.730Z,5.40
2023-05-24T22:59:52.033Z,5.47
2023-05-24T23:02:19.055Z,5.97
2023-05-24T23:04:47.429Z,5.38
2023-05-24T23:07:17.313Z,5.30
2023-05-24T23:09:44.703Z,6.10
2023-05-24T23:12:12.090Z,5.72
2023-05-24T23:14:41.769Z,5.88
2023-05-24T23:17:15.651Z,5.95
2023-05-24T23:19:43.624Z,5.22
2023-05-24T23:22:18.390Z,6.45
2023-05-24T23:24:49.423Z,6.28
2023-05-24T23:27:16.437Z,6.32
2023-05-24T23:29:44.076Z,5.93
2023-05-24T23:32:11.508Z,6.40
2023-05-24T23:34:38.745Z,6.93
2023-05-24T23:37:06.164Z,6.80
2023-05-24T23:39:33.480Z,7.05
2023-05-24T23:42:02.288Z,7.13
2023-05-24T23:44:29.718Z,6.82
2023-05-24T23:46:57.015Z,6.65
2023-05-24T23:49:25.146Z,6.68
2023-05-24T23:51:52.243Z,6.70
2023-05-24T23:54:19.532Z,6.38
2023-05-24T23:56:46.686Z,6.15
2023-05-24T23:59:15.094Z,6.07
